createdAt,value
2023-01-12T00:02:03.359Z,0
2023-01-12T00:04:29.449Z,0
2023-01-12T00:06:54.557Z,0
2023-01-12T00:09:20.668Z,0
2023-01-12T00:11:46.772Z,0
2023-01-12T00:14:12.860Z,0
2023-01-12T00:16:38.996Z,0
2023-01-12T00:19:05.032Z,0
2023-01-12T00:21:31.157Z,0
2023-01-12T00:23:56.259Z,0
2023-01-12T00:26:21.362Z,0
2023-01-12T00:28:46.493Z,0
2023-01-12T00:31:11.593Z,0
2023-01-12T00:33:37.696Z,0
2023-01-12T00:36:03.785Z,0
2023-01-12T00:38:29.952Z,0
2023-01-12T00:40:55.990Z,0
2023-01-12T00:43:22.082Z,0
2023-01-12T00:45:48.174Z,0
2023-01-12T00:48:14.315Z,0
2023-01-12T00:50:40.357Z,0
2023-01-12T00:53:06.455Z,0
2023-01-12T00:55:32.560Z,0
2023-01-12T00:57:58.638Z,0
2023-01-12T01:00:24.748Z,0
2023-01-12T01:02:49.875Z,0
2023-01-12T01:05:15.974Z,0
2023-01-12T01:07:42.056Z,0
2023-01-12T01:10:08.156Z,0
2023-01-12T01:12:34.230Z,0
2023-01-12T01:15:00.352Z,0
2023-01-12T01:17:26.431Z,0
2023-01-12T01:19:51.547Z,0
2023-01-12T01:22:16.906Z,0
2023-01-12T01:24:42.762Z,0
2023-01-12T01:27:08.863Z,0
2023-01-12T01:29:34.935Z,0
2023-01-12T01:32:01.043Z,0
2023-01-12T01:34:27.166Z,0
2023-01-12T01:36:53.248Z,0
2023-01-12T01:39:19.320Z,0
2023-01-12T01:41:45.424Z,0
2023-01-12T01:44:11.509Z,0
2023-01-12T01:46:37.657Z,0
2023-01-12T01:49:03.717Z,0
2023-01-12T01:51:29.809Z,0
2023-01-12T01:53:54.912Z,0
2023-01-12T01:56:21.012Z,0
2023-01-12T01:58:47.097Z,0
2023-01-12T02:01:13.206Z,0
2023-01-12T02:03:39.302Z,0
2023-01-12T02:06:05.399Z,0
2023-01-12T02:08:31.492Z,0
2023-01-12T02:10:56.609Z,0
2023-01-12T02:13:21.757Z,0
2023-01-12T02:15:46.849Z,0
2023-01-12T02:18:12.036Z,0
2023-01-12T02:20:37.091Z,0
2023-01-12T02:23:02.203Z,0
2023-01-12T02:25:28.282Z,0
2023-01-12T02:27:54.449Z,0
2023-01-12T02:30:20.470Z,0
2023-01-12T02:32:46.569Z,0
2023-01-12T02:35:12.679Z,0
2023-01-12T02:37:38.771Z,0
2023-01-12T02:40:04.861Z,0
2023-01-12T02:42:30.984Z,0
2023-01-12T02:44:57.083Z,0
2023-01-12T02:47:23.135Z,0
2023-01-12T02:49:49.240Z,0
2023-01-12T02:52:15.350Z,0
2023-01-12T02:54:40.457Z,0
2023-01-12T02:57:06.547Z,0
2023-01-12T02:59:32.650Z,0
2023-01-12T03:01:58.805Z,0
2023-01-12T03:04:24.840Z,0
2023-01-12T03:06:50.924Z,0
2023-01-12T03:09:17.025Z,0
2023-01-12T03:11:42.165Z,0
2023-01-12T03:14:07.268Z,0
2023-01-12T03:16:33.353Z,0
2023-01-12T03:18:59.476Z,0
2023-01-12T03:21:25.681Z,0
2023-01-12T03:23:51.654Z,0
2023-01-12T03:26:17.836Z,0
2023-01-12T03:28:43.831Z,0
2023-01-12T03:31:09.955Z,0
2023-01-12T03:33:36.032Z,0
2023-01-12T03:36:02.154Z,0
2023-01-12T03:38:27.240Z,0
2023-01-12T03:40:53.329Z,0
2023-01-12T03:43:19.427Z,0
2023-01-12T03:45:45.516Z,0
2023-01-12T03:48:11.634Z,0
2023-01-12T03:50:37.702Z,0
2023-01-12T03:53:03.826Z,0
2023-01-12T03:55:29.911Z,0
2023-01-12T03:57:56.003Z,0
2023-01-12T04:00:22.201Z,0
2023-01-12T04:02:47.238Z,0
2023-01-12T04:05:12.324Z,0
2023-01-12T04:07:37.453Z,0
2023-01-12T04:10:02.568Z,0
2023-01-12T04:12:28.654Z,0
2023-01-12T04:14:54.766Z,0
2023-01-12T04:17:20.855Z,0
2023-01-12T04:19:46.944Z,0
2023-01-12T04:22:13.042Z,0
2023-01-12T04:24:39.140Z,0
2023-01-12T04:27:05.234Z,0
2023-01-12T04:29:31.336Z,0
2023-01-12T04:31:57.418Z,0
2023-01-12T04:34:23.519Z,0
2023-01-12T04:36:49.613Z,0
2023-01-12T04:39:15.704Z,0
2023-01-12T04:41:40.808Z,0
2023-01-12T04:44:06.920Z,0
2023-01-12T04:46:33.012Z,0
2023-01-12T04:48:59.113Z,0
2023-01-12T04:51:25.208Z,0
2023-01-12T04:53:51.370Z,0
2023-01-12T04:56:17.417Z,0
2023-01-12T04:58:42.572Z,0
2023-01-12T05:01:07.621Z,0
2023-01-12T05:03:32.759Z,0
2023-01-12T05:05:57.860Z,0
2023-01-12T05:08:22.999Z,0
2023-01-12T05:10:48.089Z,0
2023-01-12T05:13:14.188Z,0
2023-01-12T05:15:40.287Z,0
2023-01-12T05:18:06.386Z,0
2023-01-12T05:20:32.531Z,0
2023-01-12T05:22:58.580Z,0
2023-01-12T05:25:24.677Z,0
2023-01-12T05:27:50.769Z,0
2023-01-12T05:30:16.868Z,0
2023-01-12T05:32:42.952Z,0
2023-01-12T05:35:09.074Z,0
2023-01-12T05:37:35.152Z,0
2023-01-12T05:40:01.248Z,0
2023-01-12T05:42:26.369Z,0
2023-01-12T05:44:52.446Z,0
2023-01-12T05:47:18.543Z,0
2023-01-12T05:49:44.640Z,0
2023-01-12T05:52:10.747Z,0
2023-01-12T05:54:36.849Z,0
2023-01-12T05:57:02.973Z,0
2023-01-12T05:59:28.054Z,0
2023-01-12T06:01:53.151Z,0
2023-01-12T06:04:18.277Z,0
2023-01-12T06:06:43.390Z,0
2023-01-12T06:09:09.527Z,0
2023-01-12T06:11:35.587Z,0
2023-01-12T06:14:01.696Z,0
2023-01-12T06:16:27.793Z,0
2023-01-12T06:18:53.994Z,0
2023-01-12T06:21:19.961Z,0
2023-01-12T06:23:46.104Z,0
2023-01-12T06:26:12.232Z,0
2023-01-12T06:28:38.264Z,0
2023-01-12T06:31:04.361Z,0
2023-01-12T06:33:30.456Z,0
2023-01-12T06:35:56.572Z,0
2023-01-12T06:38:21.666Z,0
2023-01-12T06:40:47.747Z,0
2023-01-12T06:43:13.838Z,0
2023-01-12T06:45:40.019Z,0
2023-01-12T06:48:06.035Z,0
2023-01-12T06:50:32.128Z,0
2023-01-12T06:52:58.232Z,0
2023-01-12T06:55:23.349Z,0
2023-01-12T06:57:48.464Z,0
2023-01-12T07:00:14.761Z,0
2023-01-12T07:02:40.651Z,0
2023-01-12T07:05:06.747Z,0
2023-01-12T07:07:32.851Z,0
2023-01-12T07:09:58.947Z,0
2023-01-12T07:12:25.052Z,5
2023-01-12T07:14:51.134Z,5
2023-01-12T07:17:17.230Z,5
2023-01-12T07:19:43.401Z,11
2023-01-12T07:22:09.434Z,11
2023-01-12T07:24:35.509Z,11
2023-01-12T07:27:01.607Z,16
2023-01-12T07:29:26.714Z,16
2023-01-12T07:31:52.824Z,22
2023-01-12T07:34:18.906Z,22
2023-01-12T07:36:45.002Z,22
2023-01-12T07:39:11.124Z,28
2023-01-12T07:41:37.200Z,22
2023-01-12T07:44:03.286Z,28
2023-01-12T07:46:28.426Z,28
2023-01-12T07:48:53.520Z,33
2023-01-12T07:51:18.649Z,39
2023-01-12T07:53:43.804Z,50
2023-01-12T07:56:09.867Z,56
2023-01-12T07:58:35.950Z,56
2023-01-12T08:01:02.044Z,50
2023-01-12T08:03:28.228Z,50
2023-01-12T08:05:54.235Z,50
2023-01-12T08:08:20.407Z,56
2023-01-12T08:10:46.452Z,50
2023-01-12T08:13:12.658Z,50
2023-01-12T08:15:38.667Z,56
2023-01-12T08:18:04.731Z,61
2023-01-12T08:20:30.813Z,61
2023-01-12T08:22:56.933Z,73
2023-01-12T08:25:22.048Z,78
2023-01-12T08:27:48.241Z,101
2023-01-12T08:30:14.226Z,106
2023-01-12T08:32:40.316Z,106
2023-01-12T08:35:06.408Z,101
2023-01-12T08:37:32.629Z,95
2023-01-12T08:39:58.853Z,90
2023-01-12T08:42:23.889Z,90
2023-01-12T08:44:48.841Z,84
2023-01-12T08:47:13.967Z,78
2023-01-12T08:49:39.055Z,78
2023-01-12T08:52:05.163Z,67
2023-01-12T08:54:31.334Z,78
2023-01-12T08:56:57.469Z,73
2023-01-12T08:59:23.571Z,67
2023-01-12T09:01:49.780Z,61
2023-01-12T09:04:15.646Z,61
2023-01-12T09:06:41.778Z,56
2023-01-12T09:09:07.834Z,73
2023-01-12T09:11:33.916Z,67
2023-01-12T09:14:00.014Z,73
2023-01-12T09:16:26.241Z,67
2023-01-12T09:18:52.310Z,73
2023-01-12T09:21:17.324Z,78
2023-01-12T09:23:43.404Z,84
2023-01-12T09:26:09.512Z,78
2023-01-12T09:28:35.607Z,95
2023-01-12T09:31:01.725Z,90
2023-01-12T09:33:27.859Z,84
2023-01-12T09:35:53.904Z,90
2023-01-12T09:38:19.017Z,106
2023-01-12T09:40:44.134Z,101
2023-01-12T09:43:10.245Z,106
2023-01-12T09:45:36.329Z,84
2023-01-12T09:48:02.428Z,95
2023-01-12T09:50:28.512Z,90
2023-01-12T09:52:54.597Z,101
2023-01-12T09:55:20.729Z,118
2023-01-12T09:57:46.801Z,140
2023-01-12T10:00:12.897Z,146
2023-01-12T10:02:39.179Z,151
2023-01-12T10:05:05.080Z,151
2023-01-12T10:07:31.174Z,163
2023-01-12T10:09:57.268Z,174
2023-01-12T10:12:22.396Z,208
2023-01-12T10:14:48.504Z,191
2023-01-12T10:17:14.589Z,191
2023-01-12T10:19:40.756Z,196
2023-01-12T10:22:06.892Z,196
2023-01-12T10:24:32.890Z,225
2023-01-12T10:26:58.948Z,225
2023-01-12T10:29:24.072Z,236
2023-01-12T10:31:49.193Z,236
2023-01-12T10:34:15.285Z,236
2023-01-12T10:36:41.391Z,230
2023-01-12T10:39:07.490Z,230
2023-01-12T10:41:33.573Z,241
2023-01-12T10:43:59.702Z,276
2023-01-12T10:46:25.871Z,276
2023-01-12T10:48:51.856Z,276
2023-01-12T10:51:17.960Z,276
2023-01-12T10:53:44.039Z,241
2023-01-12T10:56:10.143Z,225
2023-01-12T10:58:36.233Z,219
2023-01-12T11:01:02.339Z,196
2023-01-12T11:03:27.516Z,140
2023-01-12T11:05:53.552Z,129
2023-01-12T11:08:19.638Z,129
2023-01-12T11:10:45.760Z,129
2023-01-12T11:13:11.858Z,129
2023-01-12T11:15:37.976Z,151
2023-01-12T11:18:04.021Z,174
2023-01-12T11:20:29.147Z,191
2023-01-12T11:22:54.244Z,180
2023-01-12T11:25:19.381Z,157
2023-01-12T11:27:44.493Z,180
2023-01-12T11:30:09.610Z,168
2023-01-12T11:32:34.727Z,146
2023-01-12T11:35:00.834Z,135
2023-01-12T11:37:26.908Z,106
2023-01-12T11:39:53.014Z,95
2023-01-12T11:42:19.107Z,101
2023-01-12T11:44:45.192Z,101
2023-01-12T11:47:10.304Z,140
2023-01-12T11:49:36.420Z,185
2023-01-12T11:52:02.533Z,219
2023-01-12T11:54:28.593Z,230
2023-01-12T11:56:54.710Z,208
2023-01-12T11:59:20.781Z,241
2023-01-12T12:01:46.934Z,271
2023-01-12T12:04:12.991Z,287
2023-01-12T12:06:39.092Z,259
2023-01-12T12:09:05.185Z,304
2023-01-12T12:11:31.295Z,299
2023-01-12T12:13:57.482Z,271
2023-01-12T12:16:23.456Z,316
2023-01-12T12:18:48.567Z,321
2023-01-12T12:21:13.696Z,310
2023-01-12T12:23:38.806Z,332
2023-01-12T12:26:04.904Z,287
2023-01-12T12:28:31.007Z,321
2023-01-12T12:30:57.113Z,338
2023-01-12T12:33:23.209Z,366
2023-01-12T12:35:49.277Z,389
2023-01-12T12:38:15.392Z,389
2023-01-12T12:40:41.500Z,355
2023-01-12T12:43:07.563Z,349
2023-01-12T12:45:33.679Z,321
2023-01-12T12:47:59.759Z,310
2023-01-12T12:50:25.853Z,377
2023-01-12T12:52:51.966Z,406
2023-01-12T12:55:17.060Z,299
2023-01-12T12:57:43.163Z,225
2023-01-12T13:02:35.342Z,191
2023-01-12T13:05:01.468Z,185
2023-01-12T13:07:27.556Z,196
2023-01-12T13:09:53.632Z,219
2023-01-12T13:12:19.725Z,241
2023-01-12T13:14:44.845Z,219
2023-01-12T13:17:10.051Z,213
2023-01-12T13:19:36.064Z,213
2023-01-12T13:22:02.160Z,196
2023-01-12T13:24:28.255Z,191
2023-01-12T13:26:54.357Z,191
2023-01-12T13:29:20.436Z,168
2023-01-12T13:31:46.540Z,180
2023-01-12T13:34:12.620Z,180
2023-01-12T13:36:38.720Z,185
2023-01-12T13:39:04.807Z,202
2023-01-12T13:41:30.916Z,163
2023-01-12T13:43:57.095Z,146
2023-01-12T13:46:23.117Z,151
2023-01-12T13:48:48.212Z,151
2023-01-12T13:51:13.346Z,163
2023-01-12T13:53:38.450Z,157
2023-01-12T13:56:03.703Z,146
2023-01-12T13:58:28.716Z,123
2023-01-12T14:00:53.795Z,112
2023-01-12T14:03:19.126Z,84
2023-01-12T14:05:45.091Z,90
2023-01-12T14:08:11.109Z,90
2023-01-12T14:10:37.215Z,101
2023-01-12T14:13:03.280Z,101
2023-01-12T14:15:29.547Z,101
2023-01-12T14:17:55.484Z,95
2023-01-12T14:20:21.739Z,84
2023-01-12T14:22:47.880Z,95
2023-01-12T14:25:13.935Z,101
2023-01-12T14:27:40.063Z,101
2023-01-12T14:30:06.009Z,95
2023-01-12T14:32:32.160Z,101
2023-01-12T14:34:57.193Z,95
2023-01-12T14:37:23.390Z,78
2023-01-12T14:39:49.477Z,78
2023-01-12T14:42:15.593Z,78
2023-01-12T14:44:41.543Z,78
2023-01-12T14:47:07.676Z,78
2023-01-12T14:49:33.820Z,78
2023-01-12T14:51:58.892Z,78
2023-01-12T14:54:23.972Z,73
2023-01-12T14:56:49.236Z,67
2023-01-12T14:59:14.278Z,61
2023-01-12T15:01:39.468Z,56
2023-01-12T15:04:04.458Z,45
2023-01-12T15:06:30.625Z,45
2023-01-12T15:08:56.622Z,39
2023-01-12T15:11:22.726Z,33
2023-01-12T15:13:48.811Z,33
2023-01-12T15:16:14.986Z,28
2023-01-12T15:18:41.031Z,28
2023-01-12T15:21:07.160Z,22
2023-01-12T15:23:33.198Z,22
2023-01-12T15:25:59.331Z,16
2023-01-12T15:28:25.381Z,16
2023-01-12T15:30:51.481Z,11
2023-01-12T15:33:17.592Z,5
2023-01-12T15:35:42.739Z,11
2023-01-12T15:38:08.942Z,5
2023-01-12T15:40:34.920Z,5
2023-01-12T15:43:00.969Z,5
2023-01-12T15:45:27.080Z,5
2023-01-12T15:47:53.171Z,0
2023-01-12T15:50:19.264Z,0
2023-01-12T15:52:44.384Z,0
2023-01-12T15:55:09.502Z,0
2023-01-12T15:57:35.601Z,0
2023-01-12T16:00:00.707Z,0
2023-01-12T16:02:25.874Z,0
2023-01-12T16:07:18.020Z,0
2023-01-12T16:09:44.107Z,0
2023-01-12T16:12:10.248Z,0
2023-01-12T16:14:36.363Z,0
2023-01-12T16:17:02.409Z,0
2023-01-12T16:19:28.545Z,0
2023-01-12T16:21:54.589Z,0
2023-01-12T16:24:20.692Z,0
2023-01-12T16:26:46.855Z,0
2023-01-12T16:29:12.878Z,0
2023-01-12T16:31:38.979Z,0
2023-01-12T16:34:04.100Z,0
2023-01-12T16:36:30.265Z,0
2023-01-12T16:38:56.287Z,0
2023-01-12T16:41:22.370Z,0
2023-01-12T16:43:48.478Z,0
2023-01-12T16:46:14.565Z,0
2023-01-12T16:48:40.650Z,0
2023-01-12T16:51:06.755Z,0
2023-01-12T16:53:31.877Z,0
2023-01-12T16:55:56.996Z,0
2023-01-12T16:58:22.178Z,0
2023-01-12T17:00:47.224Z,0
2023-01-12T17:03:13.318Z,0
2023-01-12T17:05:39.410Z,0
2023-01-12T17:08:05.511Z,0
2023-01-12T17:10:31.660Z,0
2023-01-12T17:12:57.707Z,0
2023-01-12T17:15:23.784Z,0
2023-01-12T17:17:49.891Z,0
2023-01-12T17:20:15.974Z,0
2023-01-12T17:22:42.085Z,0
2023-01-12T17:25:08.178Z,0
2023-01-12T17:27:34.274Z,0
2023-01-12T17:30:00.406Z,0
2023-01-12T17:32:25.468Z,0
2023-01-12T17:34:51.563Z,0
2023-01-12T17:37:17.661Z,0
2023-01-12T17:39:43.763Z,0
2023-01-12T17:42:09.867Z,0
2023-01-12T17:44:35.945Z,0
2023-01-12T17:47:02.058Z,0
2023-01-12T17:49:27.176Z,0
2023-01-12T17:51:52.299Z,0
2023-01-12T17:54:18.376Z,0
2023-01-12T17:56:44.471Z,0
2023-01-12T17:59:10.563Z,0
2023-01-12T18:01:36.666Z,0
2023-01-12T18:04:02.752Z,0
2023-01-12T18:06:28.847Z,0
2023-01-12T18:08:54.937Z,0
2023-01-12T18:11:21.057Z,0
2023-01-12T18:13:47.134Z,0
2023-01-12T18:16:13.367Z,0
2023-01-12T18:18:39.331Z,0
2023-01-12T18:21:05.416Z,0
2023-01-12T18:23:30.542Z,0
2023-01-12T18:25:56.626Z,0
2023-01-12T18:28:22.735Z,0
2023-01-12T18:30:48.844Z,0
2023-01-12T18:33:14.927Z,0
2023-01-12T18:35:41.069Z,0
2023-01-12T18:38:07.112Z,0
2023-01-12T18:40:32.227Z,0
2023-01-12T18:42:57.378Z,0
2023-01-12T18:45:22.493Z,0
2023-01-12T18:47:47.562Z,0
2023-01-12T18:50:13.689Z,0
2023-01-12T18:52:39.767Z,0
2023-01-12T18:55:05.915Z,0
2023-01-12T18:57:31.991Z,0
2023-01-12T18:59:58.059Z,0
2023-01-12T19:02:24.168Z,0
2023-01-12T19:04:50.291Z,0
2023-01-12T19:07:16.328Z,0
2023-01-12T19:09:42.466Z,0
2023-01-12T19:12:08.536Z,0
2023-01-12T19:14:34.632Z,0
2023-01-12T19:17:00.710Z,0
2023-01-12T19:19:26.935Z,0
2023-01-12T19:21:53.036Z,0
2023-01-12T19:24:19.130Z,0
2023-01-12T19:26:45.219Z,0
2023-01-12T19:29:11.318Z,0
2023-01-12T19:31:37.418Z,0
2023-01-12T19:34:03.511Z,0
2023-01-12T19:36:29.744Z,0
2023-01-12T19:38:55.839Z,0
2023-01-12T19:41:20.972Z,0
2023-01-12T19:43:46.089Z,0
2023-01-12T19:46:12.185Z,0
2023-01-12T19:48:38.264Z,0
2023-01-12T19:51:04.370Z,0
2023-01-12T19:53:30.444Z,0
2023-01-12T19:55:55.582Z,0
2023-01-12T19:58:21.676Z,0
2023-01-12T20:00:47.777Z,0
2023-01-12T20:03:13.862Z,0
2023-01-12T20:08:06.053Z,0
2023-01-12T20:10:32.163Z,0
2023-01-12T20:12:58.251Z,0
2023-01-12T20:15:24.345Z,0
2023-01-12T20:17:50.450Z,0
2023-01-12T20:20:16.596Z,0
2023-01-12T20:22:42.624Z,0
2023-01-12T20:25:08.782Z,0
2023-01-12T20:27:33.842Z,0
2023-01-12T20:29:59.948Z,0
2023-01-12T20:32:26.031Z,0
2023-01-12T20:34:51.144Z,0
2023-01-12T20:37:16.369Z,0
2023-01-12T20:39:41.385Z,0
2023-01-12T20:42:06.526Z,0
2023-01-12T20:44:32.601Z,0
2023-01-12T20:46:58.717Z,0
2023-01-12T20:49:24.854Z,0
2023-01-12T20:51:50.913Z,0
2023-01-12T20:54:17.008Z,0
2023-01-12T20:56:43.065Z,0
2023-01-12T20:59:09.176Z,0
2023-01-12T21:01:35.346Z,0
2023-01-12T21:04:01.368Z,0
2023-01-12T21:06:27.509Z,0
2023-01-12T21:08:53.533Z,0
2023-01-12T21:11:19.646Z,0
2023-01-12T21:13:44.768Z,0
2023-01-12T21:16:10.959Z,0
2023-01-12T21:18:36.945Z,0
2023-01-12T21:21:03.086Z,0
2023-01-12T21:23:29.128Z,0
2023-01-12T21:25:55.235Z,0
2023-01-12T21:28:21.332Z,0
2023-01-12T21:30:46.456Z,0
2023-01-12T21:33:11.559Z,0
2023-01-12T21:35:36.766Z,0
2023-01-12T21:38:01.778Z,0
2023-01-12T21:40:27.928Z,0
2023-01-12T21:42:53.973Z,0
2023-01-12T21:45:20.141Z,0
2023-01-12T21:47:46.178Z,0
2023-01-12T21:50:12.279Z,0
2023-01-12T21:52:38.350Z,0
2023-01-12T21:55:04.475Z,0
2023-01-12T21:57:30.619Z,0
2023-01-12T21:59:56.651Z,0
2023-01-12T22:02:22.759Z,0
2023-01-12T22:04:48.867Z,0
2023-01-12T22:07:14.929Z,0
2023-01-12T22:09:40.059Z,0
2023-01-12T22:12:06.159Z,0
2023-01-12T22:14:32.239Z,0
2023-01-12T22:16:58.330Z,0
2023-01-12T22:19:24.468Z,0
2023-01-12T22:21:50.551Z,0
2023-01-12T22:24:16.618Z,0
2023-01-12T22:26:41.735Z,0
2023-01-12T22:29:06.849Z,0
2023-01-12T22:31:32.031Z,0
2023-01-12T22:33:57.129Z,0
2023-01-12T22:36:23.192Z,0
2023-01-12T22:38:49.274Z,0
2023-01-12T22:41:15.490Z,0
2023-01-12T22:43:41.480Z,0
2023-01-12T22:46:07.566Z,0
2023-01-12T22:48:33.667Z,0
2023-01-12T22:50:59.768Z,0
2023-01-12T22:53:25.846Z,0
2023-01-12T22:55:51.954Z,0
2023-01-12T22:58:18.051Z,0
2023-01-12T23:00:44.149Z,0
2023-01-12T23:03:10.268Z,0
2023-01-12T23:05:35.334Z,0
2023-01-12T23:08:01.426Z,0
2023-01-12T23:10:27.535Z,0
2023-01-12T23:12:53.637Z,0
2023-01-12T23:15:19.715Z,0
2023-01-12T23:17:45.823Z,0
2023-01-12T23:20:11.919Z,0
2023-01-12T23:22:37.034Z,0
2023-01-12T23:25:02.157Z,0
2023-01-12T23:27:27.296Z,0
2023-01-12T23:29:52.411Z,0
2023-01-12T23:32:18.476Z,0
2023-01-12T23:34:44.569Z,0
2023-01-12T23:37:10.673Z,0
2023-01-12T23:39:36.758Z,0
2023-01-12T23:42:02.944Z,0
2023-01-12T23:44:28.947Z,0
2023-01-12T23:46:55.060Z,0
2023-01-12T23:49:21.142Z,0
2023-01-12T23:51:47.239Z,0
2023-01-12T23:54:13.347Z,0
2023-01-12T23:56:39.473Z,0
2023-01-12T23:59:05.527Z,0
